sensor_id;sensor_type;location;lat;lon;timestamp;temperature;humidity
23550;DHT22;11953;49.010;8.608;2023-04-03T00:01:40;5.20;99.90
23550;DHT22;11953;49.010;8.608;2023-04-03T00:04:27;5.30;99.90
23550;DHT22;11953;49.010;8.608;2023-04-03T00:07:14;5.30;99.90
23550;DHT22;11953;49.010;8.608;2023-04-03T00:10:01;5.30;99.90
23550;DHT22;11953;49.010;8.608;2023-04-03T00:12:49;5.30;99.90
23550;DHT22;11953;49.010;8.608;2023-04-03T00:15:36;5.40;99.90
23550;DHT22;11953;49.010;8.608;2023-04-03T00:18:23;5.40;99.90
23550;DHT22;11953;49.010;8.608;2023-04-03T00:21:10;5.40;99.90
23550;DHT22;11953;49.010;8.608;2023-04-03T00:23:58;5.40;99.90
23550;DHT22;11953;49.010;8.608;2023-04-03T00:26:45;5.50;99.90
23550;DHT22;11953;49.010;8.608;2023-04-03T00:29:33;5.40;99.90
23550;DHT22;11953;49.010;8.608;2023-04-03T00:32:20;5.40;99.90
23550;DHT22;11953;49.010;8.608;2023-04-03T00:35:07;5.40;99.90
23550;DHT22;11953;49.010;8.608;2023-04-03T00:37:55;5.40;99.90
23550;DHT22;11953;49.010;8.608;2023-04-03T00:40:44;5.40;99.90
23550;DHT22;11953;49.010;8.608;2023-04-03T00:43:32;5.40;99.90
23550;DHT22;11953;49.010;8.608;2023-04-03T00:46:19;5.40;99.90
23550;DHT22;11953;49.010;8.608;2023-04-03T00:49:06;5.40;99.90
23550;DHT22;11953;49.010;8.608;2023-04-03T00:51:53;5.30;99.90
23550;DHT22;11953;49.010;8.608;2023-04-03T00:54:42;5.30;99.90
23550;DHT22;11953;49.010;8.608;2023-04-03T00:57:31;5.40;99.90
23550;DHT22;11953;49.010;8.608;2023-04-03T01:00:20;5.50;99.90
23550;DHT22;11953;49.010;8.608;2023-04-03T01:03:09;5.50;99.90
23550;DHT22;11953;49.010;8.608;2023-04-03T01:05:58;5.50;99.90
23550;DHT22;11953;49.010;8.608;2023-04-03T01:08:45;5.50;99.90
23550;DHT22;11953;49.010;8.608;2023-04-03T01:11:34;5.60;99.90
23550;DHT22;11953;49.010;8.608;2023-04-03T01:14:20;5.60;99.90
23550;DHT22;11953;49.010;8.608;2023-04-03T01:17:26;5.50;99.90
23550;DHT22;11953;49.010;8.608;2023-04-03T01:23:35;5.50;99.90
23550;DHT22;11953;49.010;8.608;2023-04-03T01:26:23;5.50;99.90
23550;DHT22;11953;49.010;8.608;2023-04-03T01:29:11;5.60;99.90
23550;DHT22;11953;49.010;8.608;2023-04-03T01:31:59;5.60;99.90
23550;DHT22;11953;49.010;8.608;2023-04-03T01:34:47;5.60;99.90
23550;DHT22;11953;49.010;8.608;2023-04-03T01:37:33;5.50;99.90
23550;DHT22;11953;49.010;8.608;2023-04-03T01:40:20;5.40;99.90
23550;DHT22;11953;49.010;8.608;2023-04-03T01:43:07;5.30;99.90
23550;DHT22;11953;49.010;8.608;2023-04-03T01:45:54;5.30;99.90
23550;DHT22;11953;49.010;8.608;2023-04-03T01:48:43;5.20;99.90
23550;DHT22;11953;49.010;8.608;2023-04-03T01:51:30;5.20;99.90
23550;DHT22;11953;49.010;8.608;2023-04-03T01:54:18;5.10;99.90
23550;DHT22;11953;49.010;8.608;2023-04-03T01:57:05;5.20;99.90
23550;DHT22;11953;49.010;8.608;2023-04-03T01:59:52;5.10;99.90
23550;DHT22;11953;49.010;8.608;2023-04-03T02:02:39;5.00;99.90
23550;DHT22;11953;49.010;8.608;2023-04-03T02:05:27;5.10;99.90
23550;DHT22;11953;49.010;8.608;2023-04-03T02:08:14;5.10;99.90
23550;DHT22;11953;49.010;8.608;2023-04-03T02:11:03;5.10;99.90
23550;DHT22;11953;49.010;8.608;2023-04-03T02:13:51;5.20;99.90
23550;DHT22;11953;49.010;8.608;2023-04-03T02:16:38;5.30;99.90
23550;DHT22;11953;49.010;8.608;2023-04-03T02:19:25;5.30;99.90
23550;DHT22;11953;49.010;8.608;2023-04-03T02:22:13;5.10;99.90
23550;DHT22;11953;49.010;8.608;2023-04-03T02:25:01;5.10;99.90
23550;DHT22;11953;49.010;8.608;2023-04-03T02:27:47;4.90;99.90
23550;DHT22;11953;49.010;8.608;2023-04-03T02:30:34;4.80;99.90
23550;DHT22;11953;49.010;8.608;2023-04-03T02:33:23;4.80;99.90
23550;DHT22;11953;49.010;8.608;2023-04-03T02:36:09;4.80;99.90
23550;DHT22;11953;49.010;8.608;2023-04-03T02:39:01;4.80;99.90
23550;DHT22;11953;49.010;8.608;2023-04-03T02:41:49;4.80;99.90
23550;DHT22;11953;49.010;8.608;2023-04-03T02:44:41;4.70;99.90
23550;DHT22;11953;49.010;8.608;2023-04-03T02:47:28;4.60;99.90
23550;DHT22;11953;49.010;8.608;2023-04-03T02:50:15;4.60;99.90
23550;DHT22;11953;49.010;8.608;2023-04-03T02:53:01;4.60;99.90
23550;DHT22;11953;49.010;8.608;2023-04-03T02:55:50;4.60;99.90
23550;DHT22;11953;49.010;8.608;2023-04-03T02:58:36;4.50;99.90
23550;DHT22;11953;49.010;8.608;2023-04-03T03:01:25;4.50;99.90
23550;DHT22;11953;49.010;8.608;2023-04-03T03:04:14;4.50;99.90
23550;DHT22;11953;49.010;8.608;2023-04-03T03:07:00;4.50;99.90
23550;DHT22;11953;49.010;8.608;2023-04-03T03:09:47;4.50;99.90
23550;DHT22;11953;49.010;8.608;2023-04-03T03:12:35;4.60;99.90
23550;DHT22;11953;49.010;8.608;2023-04-03T03:15:22;4.60;99.90
23550;DHT22;11953;49.010;8.608;2023-04-03T03:18:08;4.60;99.90
23550;DHT22;11953;49.010;8.608;2023-04-03T03:20:56;4.60;99.90
23550;DHT22;11953;49.010;8.608;2023-04-03T03:23:44;4.50;99.90
23550;DHT22;11953;49.010;8.608;2023-04-03T03:26:30;4.50;99.90
23550;DHT22;11953;49.010;8.608;2023-04-03T03:29:18;4.60;99.90
23550;DHT22;11953;49.010;8.608;2023-04-03T03:32:05;4.50;99.90
23550;DHT22;11953;49.010;8.608;2023-04-03T03:34:52;4.60;99.90
23550;DHT22;11953;49.010;8.608;2023-04-03T03:37:39;4.50;99.90
23550;DHT22;11953;49.010;8.608;2023-04-03T03:40:26;4.50;99.90
23550;DHT22;11953;49.010;8.608;2023-04-03T03:43:13;4.50;99.90
23550;DHT22;11953;49.010;8.608;2023-04-03T03:46:01;4.50;99.90
23550;DHT22;11953;49.010;8.608;2023-04-03T03:48:48;4.60;99.90
23550;DHT22;11953;49.010;8.608;2023-04-03T03:51:35;4.50;99.90
23550;DHT22;11953;49.010;8.608;2023-04-03T03:54:24;4.50;99.90
23550;DHT22;11953;49.010;8.608;2023-04-03T03:57:11;4.50;99.90
23550;DHT22;11953;49.010;8.608;2023-04-03T03:59:59;4.50;99.90
23550;DHT22;11953;49.010;8.608;2023-04-03T04:02:47;4.50;99.90
23550;DHT22;11953;49.010;8.608;2023-04-03T04:05:37;4.40;99.90
23550;DHT22;11953;49.010;8.608;2023-04-03T04:08:24;4.30;99.90
23550;DHT22;11953;49.010;8.608;2023-04-03T04:11:11;4.30;99.90
23550;DHT22;11953;49.010;8.608;2023-04-03T04:13:59;4.20;99.90
23550;DHT22;11953;49.010;8.608;2023-04-03T04:16:47;4.30;99.90
23550;DHT22;11953;49.010;8.608;2023-04-03T04:19:40;4.30;99.90
23550;DHT22;11953;49.010;8.608;2023-04-03T04:22:27;4.30;99.90
23550;DHT22;11953;49.010;8.608;2023-04-03T04:25:14;4.30;99.90
23550;DHT22;11953;49.010;8.608;2023-04-03T04:28:00;4.30;99.90
23550;DHT22;11953;49.010;8.608;2023-04-03T04:30:47;4.40;99.90
23550;DHT22;11953;49.010;8.608;2023-04-03T04:33:36;4.40;99.90
23550;DHT22;11953;49.010;8.608;2023-04-03T04:36:27;4.40;99.90
23550;DHT22;11953;49.010;8.608;2023-04-03T04:39:14;4.50;99.90
23550;DHT22;11953;49.010;8.608;2023-04-03T04:42:00;4.50;99.90
23550;DHT22;11953;49.010;8.608;2023-04-03T04:44:50;4.40;99.90
23550;DHT22;11953;49.010;8.608;2023-04-03T04:47:37;4.40;99.90
23550;DHT22;11953;49.010;8.608;2023-04-03T04:50:24;4.40;99.90
23550;DHT22;11953;49.010;8.608;2023-04-03T04:53:13;4.30;99.90
23550;DHT22;11953;49.010;8.608;2023-04-03T04:56:00;4.30;99.90
23550;DHT22;11953;49.010;8.608;2023-04-03T04:58:49;4.40;99.90
23550;DHT22;11953;49.010;8.608;2023-04-03T05:01:38;4.30;99.90
23550;DHT22;11953;49.010;8.608;2023-04-03T05:04:30;4.20;99.90
23550;DHT22;11953;49.010;8.608;2023-04-03T05:07:23;4.20;99.90
23550;DHT22;11953;49.010;8.608;2023-04-03T05:10:11;4.20;99.90
23550;DHT22;11953;49.010;8.608;2023-04-03T05:12:58;4.30;99.90
23550;DHT22;11953;49.010;8.608;2023-04-03T05:15:46;4.30;99.90
23550;DHT22;11953;49.010;8.608;2023-04-03T05:18:33;4.30;99.90
23550;DHT22;11953;49.010;8.608;2023-04-03T05:21:25;4.00;99.90
23550;DHT22;11953;49.010;8.608;2023-04-03T05:24:14;3.80;99.90
23550;DHT22;11953;49.010;8.608;2023-04-03T05:27:03;3.80;99.90
23550;DHT22;11953;49.010;8.608;2023-04-03T05:29:54;3.80;99.90
23550;DHT22;11953;49.010;8.608;2023-04-03T05:32:41;3.80;99.90
23550;DHT22;11953;49.010;8.608;2023-04-03T05:35:38;3.80;99.90
23550;DHT22;11953;49.010;8.608;2023-04-03T05:38:29;3.70;99.90
23550;DHT22;11953;49.010;8.608;2023-04-03T05:41:18;3.80;99.90
23550;DHT22;11953;49.010;8.608;2023-04-03T05:44:07;3.80;99.90
23550;DHT22;11953;49.010;8.608;2023-04-03T05:46:54;3.80;99.90
23550;DHT22;11953;49.010;8.608;2023-04-03T05:49:41;3.80;99.90
23550;DHT22;11953;49.010;8.608;2023-04-03T05:52:31;3.80;99.90
23550;DHT22;11953;49.010;8.608;2023-04-03T05:55:20;3.80;99.90
23550;DHT22;11953;49.010;8.608;2023-04-03T05:58:07;3.80;99.90
23550;DHT22;11953;49.010;8.608;2023-04-03T06:00:57;3.90;99.90
23550;DHT22;11953;49.010;8.608;2023-04-03T06:03:44;4.00;99.90
23550;DHT22;11953;49.010;8.608;2023-04-03T06:06:44;4.10;99.90
23550;DHT22;11953;49.010;8.608;2023-04-03T06:09:31;4.20;99.90
23550;DHT22;11953;49.010;8.608;2023-04-03T06:12:18;4.10;99.90
23550;DHT22;11953;49.010;8.608;2023-04-03T06:15:07;4.10;99.90
23550;DHT22;11953;49.010;8.608;2023-04-03T06:17:56;4.00;99.90
23550;DHT22;11953;49.010;8.608;2023-04-03T06:20:43;4.00;99.90
23550;DHT22;11953;49.010;8.608;2023-04-03T06:23:30;4.00;99.90
23550;DHT22;11953;49.010;8.608;2023-04-03T06:26:18;4.10;99.90
23550;DHT22;11953;49.010;8.608;2023-04-03T06:29:06;4.20;99.90
23550;DHT22;11953;49.010;8.608;2023-04-03T06:31:53;4.40;99.90
23550;DHT22;11953;49.010;8.608;2023-04-03T06:34:41;4.50;99.90
23550;DHT22;11953;49.010;8.608;2023-04-03T06:37:28;4.40;99.90
23550;DHT22;11953;49.010;8.608;2023-04-03T06:40:19;4.50;99.90
23550;DHT22;11953;49.010;8.608;2023-04-03T06:43:06;4.40;99.90
23550;DHT22;11953;49.010;8.608;2023-04-03T06:45:54;4.40;99.90
23550;DHT22;11953;49.010;8.608;2023-04-03T06:48:40;4.50;99.90
23550;DHT22;11953;49.010;8.608;2023-04-03T06:51:29;4.50;99.90
23550;DHT22;11953;49.010;8.608;2023-04-03T06:54:16;4.60;99.90
23550;DHT22;11953;49.010;8.608;2023-04-03T06:57:03;4.60;99.90
23550;DHT22;11953;49.010;8.608;2023-04-03T06:59:50;4.60;99.90
23550;DHT22;11953;49.010;8.608;2023-04-03T07:02:36;4.70;99.90
23550;DHT22;11953;49.010;8.608;2023-04-03T07:05:24;4.80;99.90
23550;DHT22;11953;49.010;8.608;2023-04-03T07:08:13;5.20;99.90
23550;DHT22;11953;49.010;8.608;2023-04-03T07:11:00;5.40;99.90
23550;DHT22;11953;49.010;8.608;2023-04-03T07:13:47;5.90;99.90
23550;DHT22;11953;49.010;8.608;2023-04-03T07:16:33;6.70;99.90
23550;DHT22;11953;49.010;8.608;2023-04-03T07:19:20;7.40;99.90
23550;DHT22;11953;49.010;8.608;2023-04-03T07:22:09;7.80;99.90
23550;DHT22;11953;49.010;8.608;2023-04-03T07:24:58;7.40;99.90
23550;DHT22;11953;49.010;8.608;2023-04-03T07:27:45;6.60;99.90
23550;DHT22;11953;49.010;8.608;2023-04-03T07:30:32;6.30;99.90
23550;DHT22;11953;49.010;8.608;2023-04-03T07:33:21;6.50;99.90
23550;DHT22;11953;49.010;8.608;2023-04-03T07:36:09;6.90;99.90
23550;DHT22;11953;49.010;8.608;2023-04-03T07:38:56;6.80;99.90
23550;DHT22;11953;49.010;8.608;2023-04-03T07:41:44;6.60;99.90
23550;DHT22;11953;49.010;8.608;2023-04-03T07:44:31;6.70;99.90
23550;DHT22;11953;49.010;8.608;2023-04-03T07:47:17;7.30;99.90
23550;DHT22;11953;49.010;8.608;2023-04-03T07:50:07;7.10;99.90
23550;DHT22;11953;49.010;8.608;2023-04-03T07:52:54;6.90;99.90
23550;DHT22;11953;49.010;8.608;2023-04-03T07:55:45;7.00;99.90
23550;DHT22;11953;49.010;8.608;2023-04-03T07:58:33;7.30;99.90
23550;DHT22;11953;49.010;8.608;2023-04-03T08:01:20;7.80;99.90
23550;DHT22;11953;49.010;8.608;2023-04-03T08:04:07;8.30;99.90
23550;DHT22;11953;49.010;8.608;2023-04-03T08:06:54;8.30;99.90
23550;DHT22;11953;49.010;8.608;2023-04-03T08:09:40;8.10;99.90
23550;DHT22;11953;49.010;8.608;2023-04-03T08:12:27;8.20;99.90
23550;DHT22;11953;49.010;8.608;2023-04-03T08:15:15;8.00;99.90
23550;DHT22;11953;49.010;8.608;2023-04-03T08:18:03;7.80;99.90
23550;DHT22;11953;49.010;8.608;2023-04-03T08:20:50;7.70;99.90
23550;DHT22;11953;49.010;8.608;2023-04-03T08:23:38;8.10;99.90
23550;DHT22;11953;49.010;8.608;2023-04-03T08:26:26;8.50;99.90
23550;DHT22;11953;49.010;8.608;2023-04-03T08:29:13;8.90;99.90
23550;DHT22;11953;49.010;8.608;2023-04-03T08:32:01;10.10;99.90
23550;DHT22;11953;49.010;8.608;2023-04-03T08:34:48;10.20;99.90
23550;DHT22;11953;49.010;8.608;2023-04-03T08:37:35;9.80;99.90
23550;DHT22;11953;49.010;8.608;2023-04-03T08:40:23;9.60;99.90
23550;DHT22;11953;49.010;8.608;2023-04-03T08:43:25;9.20;99.90
23550;DHT22;11953;49.010;8.608;2023-04-03T08:46:14;9.30;99.90
23550;DHT22;11953;49.010;8.608;2023-04-03T08:49:10;9.50;99.90
23550;DHT22;11953;49.010;8.608;2023-04-03T08:52:00;9.90;99.90
23550;DHT22;11953;49.010;8.608;2023-04-03T08:54:50;9.90;99.90
23550;DHT22;11953;49.010;8.608;2023-04-03T08:57:40;9.70;99.90
23550;DHT22;11953;49.010;8.608;2023-04-03T09:00:31;9.10;99.90
23550;DHT22;11953;49.010;8.608;2023-04-03T09:03:21;9.90;99.90
23550;DHT22;11953;49.010;8.608;2023-04-03T09:06:13;10.20;99.90
23550;DHT22;11953;49.010;8.608;2023-04-03T09:09:11;10.30;99.90
23550;DHT22;11953;49.010;8.608;2023-04-03T09:12:06;10.60;99.90
23550;DHT22;11953;49.010;8.608;2023-04-03T09:15:01;10.10;99.90
23550;DHT22;11953;49.010;8.608;2023-04-03T09:17:57;9.40;99.90
23550;DHT22;11953;49.010;8.608;2023-04-03T09:20:49;9.00;99.90
23550;DHT22;11953;49.010;8.608;2023-04-03T09:23:44;8.40;99.90
23550;DHT22;11953;49.010;8.608;2023-04-03T09:26:34;8.20;99.90
23550;DHT22;11953;49.010;8.608;2023-04-03T09:29:23;8.20;99.90
23550;DHT22;11953;49.010;8.608;2023-04-03T09:32:20;8.90;99.90
23550;DHT22;11953;49.010;8.608;2023-04-03T09:35:17;8.90;99.90
23550;DHT22;11953;49.010;8.608;2023-04-03T09:38:17;9.10;99.90
23550;DHT22;11953;49.010;8.608;2023-04-03T09:41:09;9.50;99.90
23550;DHT22;11953;49.010;8.608;2023-04-03T09:44:00;8.90;99.90
23550;DHT22;11953;49.010;8.608;2023-04-03T09:46:47;8.50;99.90
23550;DHT22;11953;49.010;8.608;2023-04-03T09:49:34;8.30;99.90
23550;DHT22;11953;49.010;8.608;2023-04-03T09:52:24;9.10;99.90
23550;DHT22;11953;49.010;8.608;2023-04-03T09:55:15;9.80;99.90
23550;DHT22;11953;49.010;8.608;2023-04-03T09:58:05;9.70;99.90
23550;DHT22;11953;49.010;8.608;2023-04-03T10:01:21;10.10;99.90
23550;DHT22;11953;49.010;8.608;2023-04-03T10:04:12;9.80;99.50
23550;DHT22;11953;49.010;8.608;2023-04-03T10:06:59;9.20;99.90
23550;DHT22;11953;49.010;8.608;2023-04-03T10:09:54;9.50;99.90
23550;DHT22;11953;49.010;8.608;2023-04-03T10:12:41;9.40;99.90
23550;DHT22;11953;49.010;8.608;2023-04-03T10:15:32;9.60;99.60
23550;DHT22;11953;49.010;8.608;2023-04-03T10:18:30;9.70;99.20
23550;DHT22;11953;49.010;8.608;2023-04-03T10:21:24;9.20;98.60
23550;DHT22;11953;49.010;8.608;2023-04-03T10:24:17;8.50;98.60
23550;DHT22;11953;49.010;8.608;2023-04-03T10:27:09;8.50;99.70
23550;DHT22;11953;49.010;8.608;2023-04-03T10:30:02;8.70;98.70
23550;DHT22;11953;49.010;8.608;2023-04-03T10:33:01;9.00;98.40
23550;DHT22;11953;49.010;8.608;2023-04-03T10:35:58;8.90;98.40
23550;DHT22;11953;49.010;8.608;2023-04-03T10:38:54;8.80;97.90
23550;DHT22;11953;49.010;8.608;2023-04-03T10:41:54;8.70;97.40
23550;DHT22;11953;49.010;8.608;2023-04-03T10:45:21;8.40;97.30
23550;DHT22;11953;49.010;8.608;2023-04-03T10:48:17;8.20;98.30
23550;DHT22;11953;49.010;8.608;2023-04-03T10:51:16;8.30;98.20
23550;DHT22;11953;49.010;8.608;2023-04-03T10:54:10;8.20;97.60
23550;DHT22;11953;49.010;8.608;2023-04-03T10:57:02;8.20;98.20
23550;DHT22;11953;49.010;8.608;2023-04-03T11:00:00;8.30;98.70
23550;DHT22;11953;49.010;8.608;2023-04-03T11:02:52;8.20;98.70
23550;DHT22;11953;49.010;8.608;2023-04-03T11:05:44;8.10;98.40
23550;DHT22;11953;49.010;8.608;2023-04-03T11:08:35;8.10;98.80
23550;DHT22;11953;49.010;8.608;2023-04-03T11:11:27;8.00;98.60
23550;DHT22;11953;49.010;8.608;2023-04-03T11:14:24;7.90;99.40
23550;DHT22;11953;49.010;8.608;2023-04-03T11:17:19;7.90;99.30
23550;DHT22;11953;49.010;8.608;2023-04-03T11:20:16;7.80;99.10
23550;DHT22;11953;49.010;8.608;2023-04-03T11:23:09;7.80;99.50
23550;DHT22;11953;49.010;8.608;2023-04-03T11:26:08;7.80;99.30
23550;DHT22;11953;49.010;8.608;2023-04-03T11:28:59;7.60;99.50
23550;DHT22;11953;49.010;8.608;2023-04-03T11:32:02;7.60;99.80
23550;DHT22;11953;49.010;8.608;2023-04-03T11:34:56;7.80;99.80
23550;DHT22;11953;49.010;8.608;2023-04-03T11:37:46;7.70;98.90
23550;DHT22;11953;49.010;8.608;2023-04-03T11:40:36;7.60;98.50
23550;DHT22;11953;49.010;8.608;2023-04-03T11:43:27;7.80;99.80
23550;DHT22;11953;49.010;8.608;2023-04-03T11:46:15;7.80;99.30
23550;DHT22;11953;49.010;8.608;2023-04-03T11:49:04;8.00;99.90
23550;DHT22;11953;49.010;8.608;2023-04-03T11:51:51;7.90;99.10
23550;DHT22;11953;49.010;8.608;2023-04-03T11:54:47;7.70;99.30
23550;DHT22;11953;49.010;8.608;2023-04-03T11:58:11;7.80;99.80
23550;DHT22;11953;49.010;8.608;2023-04-03T12:01:02;7.60;99.40
23550;DHT22;11953;49.010;8.608;2023-04-03T12:04:06;7.70;99.40
23550;DHT22;11953;49.010;8.608;2023-04-03T12:07:13;7.80;99.90
23550;DHT22;11953;49.010;8.608;2023-04-03T12:10:14;7.70;99.70
23550;DHT22;11953;49.010;8.608;2023-04-03T12:13:17;7.70;99.90
23550;DHT22;11953;49.010;8.608;2023-04-03T12:16:06;7.60;99.30
23550;DHT22;11953;49.010;8.608;2023-04-03T12:19:00;7.60;99.10
23550;DHT22;11953;49.010;8.608;2023-04-03T12:22:09;7.80;99.40
23550;DHT22;11953;49.010;8.608;2023-04-03T12:24:56;7.90;99.20
23550;DHT22;11953;49.010;8.608;2023-04-03T12:27:43;7.80;98.30
23550;DHT22;11953;49.010;8.608;2023-04-03T12:30:31;7.80;98.30
23550;DHT22;11953;49.010;8.608;2023-04-03T12:33:24;7.80;98.40
23550;DHT22;11953;49.010;8.608;2023-04-03T12:36:21;7.70;99.00
23550;DHT22;11953;49.010;8.608;2023-04-03T12:39:34;7.50;98.90
23550;DHT22;11953;49.010;8.608;2023-04-03T12:45:59;7.50;99.00
23550;DHT22;11953;49.010;8.608;2023-04-03T12:48:50;7.80;99.20
23550;DHT22;11953;49.010;8.608;2023-04-03T12:51:39;7.80;99.70
23550;DHT22;11953;49.010;8.608;2023-04-03T12:54:30;7.60;99.10
23550;DHT22;11953;49.010;8.608;2023-04-03T12:57:20;7.50;99.20
23550;DHT22;11953;49.010;8.608;2023-04-03T13:00:29;7.50;99.30
23550;DHT22;11953;49.010;8.608;2023-04-03T13:03:24;7.70;99.70
23550;DHT22;11953;49.010;8.608;2023-04-03T13:06:17;7.80;99.00
23550;DHT22;11953;49.010;8.608;2023-04-03T13:09:14;7.80;98.20
23550;DHT22;11953;49.010;8.608;2023-04-03T13:12:12;7.70;98.40
23550;DHT22;11953;49.010;8.608;2023-04-03T13:15:01;8.00;98.30
23550;DHT22;11953;49.010;8.608;2023-04-03T13:17:49;7.90;97.80
23550;DHT22;11953;49.010;8.608;2023-04-03T13:20:39;8.00;98.20
23550;DHT22;11953;49.010;8.608;2023-04-03T13:23:26;8.10;98.10
23550;DHT22;11953;49.010;8.608;2023-04-03T13:26:15;7.90;97.40
23550;DHT22;11953;49.010;8.608;2023-04-03T13:29:05;7.90;97.50
23550;DHT22;11953;49.010;8.608;2023-04-03T13:32:03;7.90;98.00
23550;DHT22;11953;49.010;8.608;2023-04-03T13:34:51;7.90;97.30
23550;DHT22;11953;49.010;8.608;2023-04-03T13:37:39;7.80;97.10
23550;DHT22;11953;49.010;8.608;2023-04-03T13:40:48;8.00;97.80
23550;DHT22;11953;49.010;8.608;2023-04-03T13:43:37;7.90;96.90
23550;DHT22;11953;49.010;8.608;2023-04-03T13:46:27;8.00;97.30
23550;DHT22;11953;49.010;8.608;2023-04-03T13:49:19;7.80;96.90
23550;DHT22;11953;49.010;8.608;2023-04-03T13:52:22;7.80;97.10
23550;DHT22;11953;49.010;8.608;2023-04-03T13:55:19;7.90;97.70
23550;DHT22;11953;49.010;8.608;2023-04-03T13:58:22;7.90;97.20
23550;DHT22;11953;49.010;8.608;2023-04-03T14:01:17;8.00;97.50
23550;DHT22;11953;49.010;8.608;2023-04-03T14:04:13;7.90;97.50
23550;DHT22;11953;49.010;8.608;2023-04-03T14:07:00;8.00;97.00
23550;DHT22;11953;49.010;8.608;2023-04-03T14:09:46;8.10;97.40
23550;DHT22;11953;49.010;8.608;2023-04-03T14:12:37;8.20;97.60
23550;DHT22;11953;49.010;8.608;2023-04-03T14:15:28;8.30;97.00
23550;DHT22;11953;49.010;8.608;2023-04-03T14:18:20;8.30;96.70
23550;DHT22;11953;49.010;8.608;2023-04-03T14:21:08;8.20;96.70
23550;DHT22;11953;49.010;8.608;2023-04-03T14:23:55;8.00;97.40
23550;DHT22;11953;49.010;8.608;2023-04-03T14:26:43;7.90;97.30
23550;DHT22;11953;49.010;8.608;2023-04-03T14:29:32;7.80;97.60
23550;DHT22;11953;49.010;8.608;2023-04-03T14:32:20;7.90;97.60
23550;DHT22;11953;49.010;8.608;2023-04-03T14:35:07;8.00;97.30
23550;DHT22;11953;49.010;8.608;2023-04-03T14:37:55;8.00;96.90
23550;DHT22;11953;49.010;8.608;2023-04-03T14:40:42;8.00;96.00
23550;DHT22;11953;49.010;8.608;2023-04-03T14:43:28;7.90;96.20
23550;DHT22;11953;49.010;8.608;2023-04-03T14:46:19;8.00;96.10
23550;DHT22;11953;49.010;8.608;2023-04-03T14:49:14;8.00;95.80
23550;DHT22;11953;49.010;8.608;2023-04-03T14:52:01;8.20;96.10
23550;DHT22;11953;49.010;8.608;2023-04-03T14:54:48;8.30;95.80
23550;DHT22;11953;49.010;8.608;2023-04-03T14:57:35;8.30;96.00
23550;DHT22;11953;49.010;8.608;2023-04-03T15:00:25;8.10;97.00
23550;DHT22;11953;49.010;8.608;2023-04-03T15:03:15;8.10;96.40
23550;DHT22;11953;49.010;8.608;2023-04-03T15:06:03;7.90;96.10
23550;DHT22;11953;49.010;8.608;2023-04-03T15:08:50;7.80;96.30
23550;DHT22;11953;49.010;8.608;2023-04-03T15:11:36;7.80;95.40
23550;DHT22;11953;49.010;8.608;2023-04-03T15:14:23;7.70;95.00
23550;DHT22;11953;49.010;8.608;2023-04-03T15:17:22;7.60;94.30
23550;DHT22;11953;49.010;8.608;2023-04-03T15:20:16;7.70;94.80
23550;DHT22;11953;49.010;8.608;2023-04-03T15:23:03;7.80;94.70
23550;DHT22;11953;49.010;8.608;2023-04-03T15:25:52;8.00;94.50
23550;DHT22;11953;49.010;8.608;2023-04-03T15:28:41;8.20;94.40
23550;DHT22;11953;49.010;8.608;2023-04-03T15:31:29;8.20;94.30
23550;DHT22;11953;49.010;8.608;2023-04-03T15:34:16;8.10;94.30
23550;DHT22;11953;49.010;8.608;2023-04-03T15:37:04;7.70;93.50
23550;DHT22;11953;49.010;8.608;2023-04-03T15:39:50;7.70;94.30
23550;DHT22;11953;49.010;8.608;2023-04-03T15:42:37;7.60;93.80
23550;DHT22;11953;49.010;8.608;2023-04-03T15:45:25;7.70;94.20
23550;DHT22;11953;49.010;8.608;2023-04-03T15:48:15;7.90;94.20
23550;DHT22;11953;49.010;8.608;2023-04-03T15:51:01;8.00;94.00
23550;DHT22;11953;49.010;8.608;2023-04-03T15:53:49;8.10;94.00
23550;DHT22;11953;49.010;8.608;2023-04-03T15:56:36;8.30;94.20
23550;DHT22;11953;49.010;8.608;2023-04-03T15:59:22;8.40;94.40
23550;DHT22;11953;49.010;8.608;2023-04-03T16:02:11;8.20;93.40
23550;DHT22;11953;49.010;8.608;2023-04-03T16:04:59;8.00;93.30
23550;DHT22;11953;49.010;8.608;2023-04-03T16:07:46;7.90;93.60
23550;DHT22;11953;49.010;8.608;2023-04-03T16:10:34;7.90;93.70
23550;DHT22;11953;49.010;8.608;2023-04-03T16:13:21;7.80;93.60
23550;DHT22;11953;49.010;8.608;2023-04-03T16:16:08;8.00;94.20
23550;DHT22;11953;49.010;8.608;2023-04-03T16:18:55;8.00;94.20
23550;DHT22;11953;49.010;8.608;2023-04-03T16:21:42;7.90;93.50
23550;DHT22;11953;49.010;8.608;2023-04-03T16:24:29;7.70;93.40
23550;DHT22;11953;49.010;8.608;2023-04-03T16:27:18;7.70;94.00
23550;DHT22;11953;49.010;8.608;2023-04-03T16:30:06;7.60;93.90
23550;DHT22;11953;49.010;8.608;2023-04-03T16:32:53;7.70;94.30
23550;DHT22;11953;49.010;8.608;2023-04-03T16:35:41;7.70;93.80
23550;DHT22;11953;49.010;8.608;2023-04-03T16:38:29;7.80;94.10
23550;DHT22;11953;49.010;8.608;2023-04-03T16:41:15;7.80;93.60
23550;DHT22;11953;49.010;8.608;2023-04-03T16:44:03;7.90;93.60
23550;DHT22;11953;49.010;8.608;2023-04-03T16:46:52;7.80;93.70
23550;DHT22;11953;49.010;8.608;2023-04-03T16:49:39;7.80;93.40
23550;DHT22;11953;49.010;8.608;2023-04-03T16:52:26;7.70;93.60
23550;DHT22;11953;49.010;8.608;2023-04-03T16:55:12;7.60;93.50
23550;DHT22;11953;49.010;8.608;2023-04-03T16:57:59;7.50;93.80
23550;DHT22;11953;49.010;8.608;2023-04-03T17:00:47;7.50;94.00
23550;DHT22;11953;49.010;8.608;2023-04-03T17:03:33;7.50;94.10
23550;DHT22;11953;49.010;8.608;2023-04-03T17:06:21;7.60;94.50
23550;DHT22;11953;49.010;8.608;2023-04-03T17:09:09;7.80;94.80
23550;DHT22;11953;49.010;8.608;2023-04-03T17:11:56;7.70;93.50
23550;DHT22;11953;49.010;8.608;2023-04-03T17:14:42;7.60;93.90
23550;DHT22;11953;49.010;8.608;2023-04-03T17:17:30;7.70;94.00
23550;DHT22;11953;49.010;8.608;2023-04-03T17:20:17;7.60;93.80
23550;DHT22;11953;49.010;8.608;2023-04-03T17:23:04;7.40;93.70
23550;DHT22;11953;49.010;8.608;2023-04-03T17:25:51;7.40;94.20
23550;DHT22;11953;49.010;8.608;2023-04-03T17:28:39;7.30;94.20
23550;DHT22;11953;49.010;8.608;2023-04-03T17:31:28;7.30;94.10
23550;DHT22;11953;49.010;8.608;2023-04-03T17:34:17;7.30;94.30
23550;DHT22;11953;49.010;8.608;2023-04-03T17:37:03;7.30;94.60
23550;DHT22;11953;49.010;8.608;2023-04-03T17:39:50;7.20;94.30
23550;DHT22;11953;49.010;8.608;2023-04-03T17:42:37;7.20;94.80
23550;DHT22;11953;49.010;8.608;2023-04-03T17:45:24;7.10;94.30
23550;DHT22;11953;49.010;8.608;2023-04-03T17:48:11;7.10;93.90
23550;DHT22;11953;49.010;8.608;2023-04-03T17:51:03;7.10;94.30
23550;DHT22;11953;49.010;8.608;2023-04-03T17:53:50;7.10;94.20
23550;DHT22;11953;49.010;8.608;2023-04-03T17:56:36;7.00;94.10
23550;DHT22;11953;49.010;8.608;2023-04-03T17:59:23;7.00;94.20
23550;DHT22;11953;49.010;8.608;2023-04-03T18:02:11;6.90;94.20
23550;DHT22;11953;49.010;8.608;2023-04-03T18:04:57;6.80;94.20
23550;DHT22;11953;49.010;8.608;2023-04-03T18:07:46;6.80;94.40
23550;DHT22;11953;49.010;8.608;2023-04-03T18:10:35;6.60;94.40
23550;DHT22;11953;49.010;8.608;2023-04-03T18:13:22;6.70;94.40
23550;DHT22;11953;49.010;8.608;2023-04-03T18:16:10;6.70;94.30